Time;durP1;ratioP1;P1;durP2;ratioP2;P2;SDS_P1;SDS_P2;PMS_P1;PMS_P2;Temp;Humidity;BMP_temperature;BMP_pressure;BME280_temperature;BME280_humidity;BME280_pressure;Samples;Min_cycle;Max_cycle;Signal;HPM_P1;HPM_P2
2021/08/07 00:01:43;;;;;;;10.95;6.18;;;;;;;;;;5054458;28;20432;-80
2021/08/07 00:04:11;;;;;;;9.45;6.45;;;;;;;;;;5055388;28;20225;-81
2021/08/07 00:06:38;;;;;;;8.65;5.97;;;;;;;;;;5053572;28;20049;-81
2021/08/07 00:09:05;;;;;;;9.68;6.65;;;;;;;;;;5054378;28;20044;-81
2021/08/07 00:11:31;;;;;;;10.93;7.32;;;;;;;;;;5054464;28;20045;-81
2021/08/07 00:14:00;;;;;;;9.45;5.75;;;;;;;;;;5055192;28;20060;-81
2021/08/07 00:16:27;;;;;;;8.82;5.40;;;;;;;;;;5048170;28;20045;-81
2021/08/07 00:18:53;;;;;;;9.07;5.47;;;;;;;;;;5052906;28;20049;-81
2021/08/07 00:21:20;;;;;;;7.35;5.13;;;;;;;;;;5053938;28;20058;-80
2021/08/07 00:23:47;;;;;;;8.18;5.10;;;;;;;;;;5055012;28;20045;-81
2021/08/07 00:26:14;;;;;;;7.53;5.65;;;;;;;;;;5054114;28;20054;-81
2021/08/07 00:28:41;;;;;;;9.80;5.65;;;;;;;;;;5055165;28;20037;-80
2021/08/07 00:31:09;;;;;;;6.95;5.28;;;;;;;;;;5055154;28;20056;-81
2021/08/07 00:33:36;;;;;;;9.68;5.88;;;;;;;;;;5054473;28;20056;-81
2021/08/07 00:36:03;;;;;;;7.80;5.00;;;;;;;;;;5052642;28;20068;-81
2021/08/07 00:38:30;;;;;;;8.25;5.38;;;;;;;;;;5052213;28;20045;-81
2021/08/07 00:40:57;;;;;;;7.82;5.13;;;;;;;;;;5054443;28;20041;-80
2021/08/07 00:43:24;;;;;;;7.70;4.82;;;;;;;;;;5054464;28;20049;-80
2021/08/07 00:45:51;;;;;;;8.88;5.40;;;;;;;;;;5054291;28;20025;-81
2021/08/07 00:48:19;;;;;;;7.80;5.47;;;;;;;;;;5054655;28;20038;-82
2021/08/07 00:50:47;;;;;;;8.27;5.63;;;;;;;;;;5054487;28;20037;-81
2021/08/07 00:53:14;;;;;;;7.38;4.57;;;;;;;;;;5054372;28;20060;-82
2021/08/07 00:55:42;;;;;;;9.85;5.75;;;;;;;;;;5054937;28;20045;-81
2021/08/07 00:58:09;;;;;;;9.02;5.40;;;;;;;;;;5054916;28;20059;-81
2021/08/07 01:00:36;;;;;;;8.68;5.57;;;;;;;;;;5055277;28;20034;-82
2021/08/07 01:03:10;;;;;;;8.73;5.57;;;;;;;;;;5055665;28;20064;-81
2021/08/07 01:05:43;;;;;;;8.40;5.70;;;;;;;;;;5055078;28;20046;-81
2021/08/07 01:08:17;;;;;;;9.75;5.38;;;;;;;;;;5055094;28;20029;-81
2021/08/07 01:10:50;;;;;;;8.13;5.50;;;;;;;;;;5054368;28;20054;-81
2021/08/07 01:13:20;;;;;;;9.52;5.50;;;;;;;;;;5054859;28;20052;-81
2021/08/07 01:15:51;;;;;;;7.85;5.40;;;;;;;;;;5058608;28;20113;-81
2021/08/07 01:18:21;;;;;;;9.57;5.80;;;;;;;;;;5058089;28;20045;-81
2021/08/07 01:20:54;;;;;;;9.32;4.97;;;;;;;;;;5055830;28;20061;-81
2021/08/07 01:23:33;;;;;;;7.55;5.05;;;;;;;;;;5057213;28;20058;-81
2021/08/07 01:26:04;;;;;;;8.85;5.60;;;;;;;;;;5056853;28;20410;-81
2021/08/07 01:28:35;;;;;;;7.30;5.43;;;;;;;;;;5058047;28;20526;-81
2021/08/07 01:31:04;;;;;;;9.75;5.80;;;;;;;;;;5058418;28;20056;-82
2021/08/07 01:33:32;;;;;;;8.07;5.22;;;;;;;;;;5058301;28;20457;-81
2021/08/07 01:35:59;;;;;;;7.68;4.75;;;;;;;;;;5057880;28;20056;-79
2021/08/07 01:38:26;;;;;;;8.55;5.05;;;;;;;;;;5057336;28;20045;-81
2021/08/07 01:40:53;;;;;;;8.60;5.20;;;;;;;;;;5052431;28;20049;-81
2021/08/07 01:43:20;;;;;;;7.72;5.13;;;;;;;;;;5056777;28;20112;-81
2021/08/07 01:45:48;;;;;;;7.78;4.93;;;;;;;;;;5055686;28;20052;-81
2021/08/07 01:48:24;;;;;;;8.05;4.88;;;;;;;;;;5056149;28;20056;-81
2021/08/07 01:51:07;;;;;;;7.43;5.05;;;;;;;;;;5054939;28;20058;-80
2021/08/07 01:53:36;;;;;;;7.90;5.63;;;;;;;;;;5054502;28;20064;-81
2021/08/07 01:56:06;;;;;;;8.45;4.80;;;;;;;;;;5054536;28;20045;-81
2021/08/07 01:58:35;;;;;;;7.53;4.70;;;;;;;;;;5054525;28;20061;-80
2021/08/07 02:01:04;;;;;;;7.55;4.90;;;;;;;;;;5053995;28;21374;-82
2021/08/07 02:03:33;;;;;;;6.68;4.45;;;;;;;;;;5052994;28;20061;-81
2021/08/07 02:06:00;;;;;;;6.80;4.65;;;;;;;;;;5051414;28;20045;-81
2021/08/07 02:08:27;;;;;;;8.38;5.07;;;;;;;;;;5051702;28;20049;-80
2021/08/07 02:10:55;;;;;;;7.65;4.60;;;;;;;;;;5046389;28;20053;-79
2021/08/07 02:13:22;;;;;;;7.90;4.57;;;;;;;;;;5046826;28;20061;-79
2021/08/07 02:15:52;;;;;;;6.93;4.07;;;;;;;;;;5049130;28;20053;-80
2021/08/07 02:18:22;;;;;;;8.18;4.82;;;;;;;;;;5049802;28;20042;-81
2021/08/07 02:20:51;;;;;;;8.18;4.45;;;;;;;;;;5051722;28;20550;-80
2021/08/07 02:23:19;;;;;;;6.03;4.28;;;;;;;;;;5052447;28;20053;-81
2021/08/07 02:25:49;;;;;;;6.40;4.28;;;;;;;;;;5052137;28;20037;-81
2021/08/07 02:28:16;;;;;;;7.00;4.60;;;;;;;;;;5050460;28;20046;-80
2021/08/07 02:30:44;;;;;;;6.03;4.10;;;;;;;;;;5051557;28;20054;-79
2021/08/07 02:33:11;;;;;;;7.07;4.60;;;;;;;;;;5053213;28;20029;-82
2021/08/07 02:35:40;;;;;;;6.85;4.03;;;;;;;;;;5053087;28;20052;-82
2021/08/07 02:38:07;;;;;;;5.82;4.07;;;;;;;;;;5053000;28;20053;-82
2021/08/07 02:40:35;;;;;;;7.88;4.53;;;;;;;;;;5054784;28;20113;-82
2021/08/07 02:43:02;;;;;;;9.27;4.50;;;;;;;;;;5052241;28;20053;-81
2021/08/07 02:45:30;;;;;;;6.43;4.10;;;;;;;;;;5052228;28;20045;-82
2021/08/07 02:47:57;;;;;;;7.28;4.50;;;;;;;;;;5054936;28;20037;-81
2021/08/07 02:50:24;;;;;;;6.75;4.30;;;;;;;;;;5055960;28;20053;-81
2021/08/07 02:52:53;;;;;;;6.03;4.10;;;;;;;;;;5055181;28;20045;-81
2021/08/07 02:55:22;;;;;;;7.57;4.28;;;;;;;;;;5055280;28;20053;-81
2021/08/07 02:57:51;;;;;;;6.93;4.40;;;;;;;;;;5053256;28;20050;-82
2021/08/07 03:00:18;;;;;;;7.00;4.47;;;;;;;;;;5055803;28;20050;-81
2021/08/07 03:02:45;;;;;;;6.57;4.65;;;;;;;;;;5055891;28;20045;-81
2021/08/07 03:05:12;;;;;;;7.13;4.65;;;;;;;;;;5056854;28;20041;-80
2021/08/07 03:07:39;;;;;;;6.43;4.32;;;;;;;;;;5055700;28;20049;-81
2021/08/07 03:10:10;;;;;;;6.93;4.47;;;;;;;;;;5053483;28;20060;-81
2021/08/07 03:12:37;;;;;;;7.18;4.40;;;;;;;;;;5049689;28;20045;-81
2021/08/07 03:15:05;;;;;;;7.03;4.40;;;;;;;;;;5049505;28;20053;-80
2021/08/07 03:17:32;;;;;;;7.50;4.32;;;;;;;;;;5049272;28;20050;-81
2021/08/07 03:19:59;;;;;;;7.25;4.65;;;;;;;;;;5048540;28;20049;-82
2021/08/07 03:22:26;;;;;;;6.80;4.68;;;;;;;;;;5047745;28;20490;-81
2021/08/07 03:24:53;;;;;;;6.22;4.30;;;;;;;;;;5045953;28;20059;-82
2021/08/07 03:27:21;;;;;;;6.72;4.30;;;;;;;;;;5044882;28;20055;-81
2021/08/07 03:29:48;;;;;;;5.88;4.45;;;;;;;;;;5045689;28;20418;-81
2021/08/07 03:32:14;;;;;;;6.60;3.88;;;;;;;;;;5045877;28;20050;-81
2021/08/07 03:34:41;;;;;;;6.88;4.22;;;;;;;;;;5045253;28;20053;-81
2021/08/07 03:37:08;;;;;;;6.22;3.88;;;;;;;;;;5045155;28;20045;-81
2021/08/07 03:39:35;;;;;;;6.40;3.95;;;;;;;;;;5044970;28;20049;-81
2021/08/07 03:42:02;;;;;;;5.65;3.55;;;;;;;;;;5045662;28;20041;-81
2021/08/07 03:44:31;;;;;;;6.13;4.35;;;;;;;;;;5045371;28;20060;-81
2021/08/07 03:46:57;;;;;;;7.25;4.22;;;;;;;;;;5044358;28;20050;-81
2021/08/07 03:49:24;;;;;;;6.15;3.58;;;;;;;;;;5044768;28;20485;-81
2021/08/07 03:51:51;;;;;;;5.80;4.00;;;;;;;;;;5045055;28;20056;-81
2021/08/07 03:54:18;;;;;;;7.85;3.90;;;;;;;;;;5044867;28;20075;-81
2021/08/07 03:56:45;;;;;;;6.85;3.80;;;;;;;;;;5044708;28;20041;-81
2021/08/07 03:59:12;;;;;;;6.35;3.67;;;;;;;;;;5042032;28;20056;-79
2021/08/07 04:01:40;;;;;;;6.85;4.00;;;;;;;;;;5033735;28;20507;-81
2021/08/07 04:04:09;;;;;;;5.40;3.70;;;;;;;;;;5033596;28;20052;-81
2021/08/07 04:06:36;;;;;;;5.85;3.42;;;;;;;;;;5034467;28;20137;-80
2021/08/07 04:09:03;;;;;;;5.97;3.70;;;;;;;;;;5033837;28;20064;-81
2021/08/07 04:11:30;;;;;;;7.03;3.88;;;;;;;;;;5035250;28;20521;-81
2021/08/07 04:13:56;;;;;;;5.32;3.55;;;;;;;;;;5035844;28;20049;-80
2021/08/07 04:16:23;;;;;;;4.97;3.50;;;;;;;;;;5035568;28;20045;-80
2021/08/07 04:18:52;;;;;;;6.68;3.63;;;;;;;;;;5035099;28;20050;-80
2021/08/07 04:21:18;;;;;;;6.28;3.75;;;;;;;;;;5034186;28;20518;-80
2021/08/07 04:23:45;;;;;;;5.97;4.15;;;;;;;;;;5034204;28;20053;-80
2021/08/07 04:26:12;;;;;;;6.90;3.90;;;;;;;;;;5033969;28;20053;-80
2021/08/07 04:28:39;;;;;;;7.10;4.05;;;;;;;;;;5034721;28;20056;-80
2021/08/07 04:31:06;;;;;;;6.22;4.28;;;;;;;;;;5034328;28;20084;-80
2021/08/07 04:33:34;;;;;;;7.90;3.90;;;;;;;;;;5037919;28;20095;-78
2021/08/07 04:36:03;;;;;;;6.75;3.60;;;;;;;;;;5054639;28;20025;-80
2021/08/07 04:38:30;;;;;;;5.00;3.33;;;;;;;;;;5041455;28;20053;-83
2021/08/07 04:40:58;;;;;;;7.07;3.97;;;;;;;;;;5040397;28;20053;-83
2021/08/07 04:43:25;;;;;;;6.03;3.58;;;;;;;;;;5040976;28;20052;-84
2021/08/07 04:45:52;;;;;;;5.20;3.63;;;;;;;;;;5045020;28;20045;-81
2021/08/07 04:48:19;;;;;;;5.85;4.03;;;;;;;;;;5046094;28;20049;-83
2021/08/07 04:50:46;;;;;;;5.60;3.60;;;;;;;;;;5050095;28;20088;-83
2021/08/07 04:53:14;;;;;;;7.40;4.10;;;;;;;;;;5049253;28;20045;-82
2021/08/07 04:55:41;;;;;;;5.35;3.90;;;;;;;;;;5047533;28;20060;-83
2021/08/07 04:58:08;;;;;;;5.68;3.25;;;;;;;;;;5042773;28;20045;-84
2021/08/07 05:00:34;;;;;;;6.55;3.92;;;;;;;;;;5041784;28;20107;-81
2021/08/07 05:03:01;;;;;;;5.47;3.40;;;;;;;;;;5041909;28;20395;-84
2021/08/07 05:05:28;;;;;;;5.63;3.65;;;;;;;;;;5041285;28;20057;-84
2021/08/07 05:07:55;;;;;;;7.18;4.15;;;;;;;;;;5042379;28;20054;-82
2021/08/07 05:10:23;;;;;;;7.05;3.80;;;;;;;;;;5041219;28;20045;-83
2021/08/07 05:12:50;;;;;;;5.97;3.97;;;;;;;;;;5040245;28;20056;-83
2021/08/07 05:15:17;;;;;;;5.97;3.67;;;;;;;;;;5040596;28;20473;-83
2021/08/07 05:17:44;;;;;;;7.43;3.53;;;;;;;;;;5041625;28;20045;-84
2021/08/07 05:20:11;;;;;;;5.10;3.50;;;;;;;;;;5041820;28;20053;-83
2021/08/07 05:22:38;;;;;;;7.43;3.65;;;;;;;;;;5041163;28;20049;-83
2021/08/07 05:25:06;;;;;;;6.45;3.70;;;;;;;;;;5041203;28;20115;-84
2021/08/07 05:27:35;;;;;;;7.03;3.70;;;;;;;;;;5042195;28;20625;-83
2021/08/07 05:30:01;;;;;;;6.32;3.53;;;;;;;;;;5042041;28;20514;-83
2021/08/07 05:32:28;;;;;;;7.07;3.67;;;;;;;;;;5041877;28;20053;-84
2021/08/07 05:34:55;;;;;;;7.05;3.95;;;;;;;;;;5041841;28;20064;-83
2021/08/07 05:37:22;;;;;;;5.78;3.78;;;;;;;;;;5041749;28;20133;-82
2021/08/07 05:39:49;;;;;;;7.07;3.85;;;;;;;;;;5041736;28;20494;-84
2021/08/07 05:42:16;;;;;;;6.57;4.03;;;;;;;;;;5042139;28;20046;-84
2021/08/07 05:44:44;;;;;;;4.97;3.47;;;;;;;;;;5042355;28;20057;-83
2021/08/07 05:47:11;;;;;;;5.97;3.92;;;;;;;;;;5042703;28;20482;-83
2021/08/07 05:49:37;;;;;;;6.05;4.30;;;;;;;;;;5042370;28;20054;-84
2021/08/07 05:52:05;;;;;;;6.03;3.97;;;;;;;;;;5042609;28;20053;-83
2021/08/07 05:54:31;;;;;;;7.15;4.30;;;;;;;;;;5042134;28;20050;-79
2021/08/07 05:56:58;;;;;;;8.48;4.00;;;;;;;;;;5042051;28;20690;-83
2021/08/07 05:59:25;;;;;;;8.05;4.90;;;;;;;;;;5042188;28;20050;-82
2021/08/07 06:01:53;;;;;;;7.18;3.85;;;;;;;;;;5042230;28;20053;-83
2021/08/07 06:04:20;;;;;;;6.55;4.40;;;;;;;;;;5045207;28;20065;-81
2021/08/07 06:06:47;;;;;;;6.50;3.80;;;;;;;;;;5049831;28;20052;-82
2021/08/07 06:09:14;;;;;;;7.03;4.03;;;;;;;;;;5053011;28;20422;-81
2021/08/07 06:11:41;;;;;;;6.88;3.88;;;;;;;;;;5041511;28;20076;-83
2021/08/07 06:14:07;;;;;;;6.63;4.20;;;;;;;;;;5039952;28;20506;-85
2021/08/07 06:16:34;;;;;;;6.95;3.72;;;;;;;;;;5040750;28;20049;-82
2021/08/07 06:19:03;;;;;;;6.97;3.53;;;;;;;;;;5041284;28;20450;-82
2021/08/07 06:21:29;;;;;;;5.03;3.42;;;;;;;;;;5041275;28;20049;-82
2021/08/07 06:23:58;;;;;;;6.53;3.63;;;;;;;;;;5042542;28;20042;-83
2021/08/07 06:26:25;;;;;;;5.00;3.47;;;;;;;;;;5040588;28;20513;-83
2021/08/07 06:28:52;;;;;;;5.78;3.40;;;;;;;;;;5041734;28;20045;-83
2021/08/07 06:31:19;;;;;;;5.55;3.00;;;;;;;;;;5041070;28;20049;-83
2021/08/07 06:33:46;;;;;;;5.93;3.67;;;;;;;;;;5041248;28;20529;-82
2021/08/07 06:36:14;;;;;;;5.65;3.38;;;;;;;;;;5041590;28;20410;-83
2021/08/07 06:38:44;;;;;;;6.22;3.28;;;;;;;;;;5041639;28;20049;-83
2021/08/07 06:41:10;;;;;;;5.93;3.40;;;;;;;;;;5041979;28;20045;-83
2021/08/07 06:43:38;;;;;;;6.25;3.63;;;;;;;;;;5041004;28;20071;-83
2021/08/07 06:46:04;;;;;;;7.50;3.60;;;;;;;;;;5041209;28;20052;-83
2021/08/07 06:48:31;;;;;;;5.45;3.50;;;;;;;;;;5041433;28;20064;-83
2021/08/07 06:50:58;;;;;;;4.90;3.30;;;;;;;;;;5041859;28;20054;-84
2021/08/07 06:53:26;;;;;;;6.60;3.42;;;;;;;;;;5042212;28;20057;-84
2021/08/07 06:55:53;;;;;;;6.00;3.47;;;;;;;;;;5041253;28;20056;-83
2021/08/07 06:58:20;;;;;;;6.10;3.53;;;;;;;;;;5041083;28;20491;-84
2021/08/07 07:00:47;;;;;;;5.25;3.30;;;;;;;;;;5041827;28;20060;-81
2021/08/07 07:03:13;;;;;;;6.30;3.10;;;;;;;;;;5043943;28;20049;-84
2021/08/07 07:05:40;;;;;;;5.93;3.22;;;;;;;;;;5040746;28;20045;-84
2021/08/07 07:08:07;;;;;;;5.22;3.15;;;;;;;;;;5042482;28;20061;-82
2021/08/07 07:10:37;;;;;;;4.78;2.92;;;;;;;;;;5045439;28;20045;-83
2021/08/07 07:13:04;;;;;;;5.63;3.20;;;;;;;;;;5040493;28;20053;-82
2021/08/07 07:15:31;;;;;;;5.45;3.08;;;;;;;;;;5040163;28;20126;-84
2021/08/07 07:17:58;;;;;;;5.63;3.10;;;;;;;;;;5039932;28;20049;-84
2021/08/07 07:20:25;;;;;;;5.50;2.90;;;;;;;;;;5040434;28;20133;-83
2021/08/07 07:22:52;;;;;;;5.60;2.95;;;;;;;;;;5040007;28;20053;-83
2021/08/07 07:25:20;;;;;;;5.97;3.30;;;;;;;;;;5040355;28;20096;-83
2021/08/07 07:27:48;;;;;;;5.75;3.55;;;;;;;;;;5040591;28;20045;-83
2021/08/07 07:30:16;;;;;;;4.53;2.97;;;;;;;;;;5049844;28;20056;-81
2021/08/07 07:32:43;;;;;;;5.20;2.78;;;;;;;;;;5052592;28;20046;-82
2021/08/07 07:35:11;;;;;;;6.22;3.13;;;;;;;;;;5045021;28;20057;-83
2021/08/07 07:37:38;;;;;;;5.85;3.40;;;;;;;;;;5041472;28;20045;-84
2021/08/07 07:40:06;;;;;;;6.15;2.90;;;;;;;;;;5041455;28;20052;-84
2021/08/07 07:42:33;;;;;;;5.72;3.03;;;;;;;;;;5040452;28;20052;-84
2021/08/07 07:45:01;;;;;;;5.18;3.15;;;;;;;;;;5039506;28;20050;-83
2021/08/07 07:47:28;;;;;;;5.75;3.22;;;;;;;;;;5040454;28;20490;-84
2021/08/07 07:49:55;;;;;;;5.50;3.40;;;;;;;;;;5040336;28;20049;-83
2021/08/07 07:52:22;;;;;;;4.60;3.00;;;;;;;;;;5042062;28;20053;-84
2021/08/07 07:54:49;;;;;;;4.78;2.92;;;;;;;;;;5042096;28;20109;-84
2021/08/07 07:57:16;;;;;;;6.55;3.03;;;;;;;;;;5041408;28;20041;-84
2021/08/07 07:59:43;;;;;;;6.53;2.70;;;;;;;;;;5040363;28;20049;-82
2021/08/07 08:02:11;;;;;;;5.57;2.80;;;;;;;;;;5041295;28;20052;-84
2021/08/07 08:04:38;;;;;;;6.78;3.22;;;;;;;;;;5040206;28;20056;-83
2021/08/07 08:07:05;;;;;;;5.13;3.10;;;;;;;;;;5039832;28;20049;-83
2021/08/07 08:09:32;;;;;;;4.57;2.90;;;;;;;;;;5061313;22;20057;-77
2021/08/07 08:11:59;;;;;;;4.63;3.05;;;;;;;;;;5058086;28;20053;-78
2021/08/07 08:14:26;;;;;;;5.72;3.67;;;;;;;;;;5058307;28;20049;-77
2021/08/07 08:16:52;;;;;;;5.32;2.95;;;;;;;;;;5057437;28;20075;-77
2021/08/07 08:19:21;;;;;;;4.30;2.92;;;;;;;;;;5059338;28;20064;-77
2021/08/07 08:21:47;;;;;;;5.40;2.88;;;;;;;;;;5059583;28;20056;-76
2021/08/07 08:24:14;;;;;;;4.93;2.47;;;;;;;;;;5061888;28;20060;-78
2021/08/07 08:26:41;;;;;;;5.60;2.63;;;;;;;;;;5065739;28;20056;-78
2021/08/07 08:29:08;;;;;;;4.88;2.70;;;;;;;;;;5069158;28;20044;-76
2021/08/07 08:31:35;;;;;;;5.25;2.75;;;;;;;;;;5069184;28;20048;-76
2021/08/07 08:34:02;;;;;;;4.82;2.17;;;;;;;;;;5065504;28;20045;-77
2021/08/07 08:36:31;;;;;;;5.13;2.70;;;;;;;;;;5058165;28;20057;-77
2021/08/07 08:38:58;;;;;;;4.30;2.40;;;;;;;;;;5056137;28;20045;-75
2021/08/07 08:41:25;;;;;;;3.65;2.38;;;;;;;;;;5056026;28;20052;-76
2021/08/07 08:43:52;;;;;;;4.53;2.60;;;;;;;;;;5056324;28;20056;-75
2021/08/07 08:46:20;;;;;;;4.53;2.72;;;;;;;;;;5054669;28;20041;-75
2021/08/07 08:48:47;;;;;;;5.00;2.60;;;;;;;;;;5055076;28;20045;-75
2021/08/07 08:51:16;;;;;;;4.85;2.63;;;;;;;;;;5055476;28;20551;-75
2021/08/07 08:53:45;;;;;;;4.97;3.08;;;;;;;;;;5052638;28;20103;-76
2021/08/07 08:56:12;;;;;;;4.30;2.25;;;;;;;;;;5055830;28;20080;-80
2021/08/07 08:58:39;;;;;;;5.18;2.72;;;;;;;;;;5055810;28;20657;-77
2021/08/07 09:01:07;;;;;;;4.75;2.50;;;;;;;;;;5061057;28;20055;-79
2021/08/07 09:03:34;;;;;;;4.25;2.40;;;;;;;;;;5080307;28;20052;-80
2021/08/07 09:06:01;;;;;;;4.55;2.42;;;;;;;;;;5074825;28;20045;-76
2021/08/07 09:08:28;;;;;;;4.57;2.30;;;;;;;;;;5075440;28;20547;-77
2021/08/07 09:11:17;;;;;;;4.82;2.28;;;;;;;;;;5075642;28;20105;-76
2021/08/07 09:13:44;;;;;;;6.07;2.45;;;;;;;;;;5057759;28;20072;-77
2021/08/07 09:16:11;;;;;;;4.97;2.38;;;;;;;;;;5054651;28;20067;-77
2021/08/07 09:18:38;;;;;;;4.32;2.13;;;;;;;;;;5055590;28;20048;-77
2021/08/07 09:21:14;;;;;;;4.72;2.45;;;;;;;;;;5055648;28;20055;-77
2021/08/07 09:23:41;;;;;;;5.22;2.50;;;;;;;;;;5055085;28;20063;-76
2021/08/07 09:26:18;;;;;;;5.68;2.42;;;;;;;;;;5054292;28;20056;-76
2021/08/07 09:28:47;;;;;;;3.78;2.40;;;;;;;;;;5055692;28;20099;-76
2021/08/07 09:31:14;;;;;;;3.25;2.03;;;;;;;;;;5054874;28;20044;-76
2021/08/07 09:33:41;;;;;;;4.10;2.22;;;;;;;;;;5054750;28;20048;-76
2021/08/07 09:36:08;;;;;;;4.22;2.05;;;;;;;;;;5054284;28;20044;-76
2021/08/07 09:38:44;;;;;;;5.10;2.65;;;;;;;;;;5055162;28;20052;-76
2021/08/07 09:41:11;;;;;;;3.70;2.30;;;;;;;;;;5054693;28;20064;-77
2021/08/07 09:43:45;;;;;;;4.70;2.42;;;;;;;;;;5054782;28;20132;-77
2021/08/07 09:46:14;;;;;;;4.90;2.45;;;;;;;;;;5053967;28;20452;-76
2021/08/07 09:48:43;;;;;;;6.50;2.35;;;;;;;;;;5056446;28;20056;-77
2021/08/07 09:51:19;;;;;;;5.22;2.17;;;;;;;;;;5057110;28;20059;-76
2021/08/07 09:53:46;;;;;;;4.82;2.30;;;;;;;;;;5055169;28;20102;-77
2021/08/07 09:56:13;;;;;;;4.05;2.33;;;;;;;;;;5054666;28;20424;-78
2021/08/07 09:58:40;;;;;;;5.88;2.40;;;;;;;;;;5055827;28;20060;-77
2021/08/07 10:01:26;;;;;;;4.20;2.30;;;;;;;;;;5058229;28;20489;-76
2021/08/07 10:04:04;;;;;;;3.38;2.00;;;;;;;;;;5074891;28;20132;-76
2021/08/07 10:06:31;;;;;;;6.15;2.28;;;;;;;;;;5074141;28;20084;-75
2021/08/07 10:08:57;;;;;;;4.18;2.33;;;;;;;;;;5074504;28;20493;-76
2021/08/07 10:11:26;;;;;;;3.45;2.05;;;;;;;;;;5074685;28;20055;-75
2021/08/07 10:13:54;;;;;;;4.25;2.28;;;;;;;;;;5056002;28;20499;-76
2021/08/07 10:16:23;;;;;;;4.90;2.70;;;;;;;;;;5054363;28;20048;-76
2021/08/07 10:18:51;;;;;;;6.40;2.38;;;;;;;;;;5054380;28;20118;-77
2021/08/07 10:21:19;;;;;;;3.90;2.38;;;;;;;;;;5054021;28;20410;-76
2021/08/07 10:23:47;;;;;;;4.47;2.42;;;;;;;;;;5054063;28;20049;-77
2021/08/07 10:26:19;;;;;;;4.35;2.58;;;;;;;;;;5053571;28;20514;-77
2021/08/07 10:28:48;;;;;;;4.60;2.60;;;;;;;;;;5055580;28;20041;-77
2021/08/07 10:31:21;;;;;;;5.35;2.35;;;;;;;;;;5058633;28;20055;-78
2021/08/07 10:33:51;;;;;;;3.75;2.30;;;;;;;;;;5058141;28;20477;-79
2021/08/07 10:36:18;;;;;;;5.47;2.50;;;;;;;;;;5058282;28;20405;-78
2021/08/07 10:38:47;;;;;;;4.05;2.47;;;;;;;;;;5058439;28;20049;-78
2021/08/07 10:41:14;;;;;;;4.05;2.33;;;;;;;;;;5057925;28;20045;-79
2021/08/07 10:43:41;;;;;;;5.10;2.28;;;;;;;;;;5057669;28;20045;-78
2021/08/07 10:46:10;;;;;;;3.92;2.30;;;;;;;;;;5056422;28;20445;-78
2021/08/07 10:48:39;;;;;;;4.75;2.63;;;;;;;;;;5057746;28;20135;-79
2021/08/07 10:51:34;;;;;;;4.18;2.70;;;;;;;;;;5065165;28;20049;-76
2021/08/07 10:54:02;;;;;;;3.95;2.30;;;;;;;;;;5071071;28;20072;-76
2021/08/07 10:56:41;;;;;;;4.88;2.40;;;;;;;;;;5068495;28;20059;-76
2021/08/07 10:59:20;;;;;;;4.28;2.30;;;;;;;;;;5069205;28;20052;-76
2021/08/07 11:01:48;;;;;;;4.30;2.38;;;;;;;;;;5076941;28;20146;-78
2021/08/07 11:04:21;;;;;;;4.05;2.67;;;;;;;;;;5082686;28;20052;-76
2021/08/07 11:06:58;;;;;;;3.67;2.47;;;;;;;;;;5081160;28;20048;-78
2021/08/07 11:09:29;;;;;;;4.40;2.60;;;;;;;;;;5080811;28;20048;-76
2021/08/07 11:12:30;;;;;;;4.35;2.45;;;;;;;;;;5076596;28;20533;-78
2021/08/07 11:15:06;;;;;;;5.55;2.50;;;;;;;;;;5058262;28;20057;-79
2021/08/07 11:17:36;;;;;;;4.25;2.42;;;;;;;;;;5058031;28;20045;-79
2021/08/07 11:20:08;;;;;;;4.70;2.28;;;;;;;;;;5059318;28;20055;-78
2021/08/07 11:23:10;;;;;;;4.38;2.63;;;;;;;;;;5058251;28;20099;-78
2021/08/07 11:25:52;;;;;;;4.15;2.40;;;;;;;;;;5057854;28;20045;-79
2021/08/07 11:28:21;;;;;;;3.85;2.17;;;;;;;;;;5058366;28;20052;-79
2021/08/07 11:30:48;;;;;;;5.43;2.72;;;;;;;;;;5057585;28;20136;-79
2021/08/07 11:33:25;;;;;;;4.00;2.13;;;;;;;;;;5058273;28;20053;-78
2021/08/07 11:36:09;;;;;;;3.72;2.40;;;;;;;;;;5057781;28;20100;-77
2021/08/07 11:39:04;;;;;;;4.20;2.40;;;;;;;;;;5057733;28;20055;-77
2021/08/07 11:41:34;;;;;;;4.25;2.38;;;;;;;;;;5057821;28;20064;-78
2021/08/07 11:44:02;;;;;;;4.65;2.42;;;;;;;;;;5057075;28;20060;-76
2021/08/07 11:46:37;;;;;;;3.45;2.35;;;;;;;;;;5057808;28;20052;-76
2021/08/07 11:49:04;;;;;;;6.95;3.05;;;;;;;;;;5057927;28;20049;-78
2021/08/07 11:51:32;;;;;;;10.98;5.72;;;;;;;;;;5056912;28;20049;-80
2021/08/07 11:53:59;;;;;;;6.75;3.88;;;;;;;;;;5057553;28;20049;-77
2021/08/07 11:56:27;;;;;;;5.18;2.83;;;;;;;;;;5057093;28;20056;-79
2021/08/07 11:58:56;;;;;;;5.05;2.67;;;;;;;;;;5056508;28;20057;-78
2021/08/07 12:01:30;;;;;;;4.80;2.58;;;;;;;;;;5061771;28;20052;-79
2021/08/07 12:03:57;;;;;;;4.95;2.50;;;;;;;;;;5076311;28;20050;-79
2021/08/07 12:06:28;;;;;;;4.55;2.42;;;;;;;;;;5075158;28;20106;-78
2021/08/07 12:08:55;;;;;;;5.32;2.42;;;;;;;;;;5076168;28;20398;-77
2021/08/07 12:11:22;;;;;;;6.55;2.90;;;;;;;;;;5077541;28;20063;-78
2021/08/07 12:13:53;;;;;;;5.68;2.80;;;;;;;;;;5057956;28;20128;-78
2021/08/07 12:16:22;;;;;;;4.60;2.60;;;;;;;;;;5056324;28;20114;-79
2021/08/07 12:18:51;;;;;;;4.78;2.58;;;;;;;;;;5057249;28;20052;-79
2021/08/07 12:21:31;;;;;;;5.55;2.50;;;;;;;;;;5056911;28;20045;-79
2021/08/07 12:24:01;;;;;;;3.83;2.30;;;;;;;;;;5056981;28;20049;-79
2021/08/07 12:26:30;;;;;;;4.40;2.35;;;;;;;;;;5056510;28;20045;-79
2021/08/07 12:29:01;;;;;;;5.78;3.28;;;;;;;;;;5057510;28;20052;-77
2021/08/07 12:31:43;;;;;;;3.65;2.20;;;;;;;;;;5057261;28;20056;-78
2021/08/07 12:34:15;;;;;;;4.55;2.20;;;;;;;;;;5057924;28;20045;-78
2021/08/07 12:36:42;;;;;;;4.78;2.72;;;;;;;;;;5055642;28;20079;-78
2021/08/07 12:39:09;;;;;;;3.90;2.50;;;;;;;;;;5055889;28;20170;-77
2021/08/07 12:41:37;;;;;;;3.97;2.70;;;;;;;;;;5056593;28;20064;-76
2021/08/07 12:44:26;;;;;;;4.53;2.58;;;;;;;;;;5061490;28;20072;-77
2021/08/07 12:46:56;;;;;;;4.55;2.38;;;;;;;;;;5069368;28;20056;-75
2021/08/07 12:49:36;;;;;;;4.20;2.60;;;;;;;;;;5071336;28;20064;-76
2021/08/07 12:52:05;;;;;;;4.68;2.53;;;;;;;;;;5070492;28;20048;-75
2021/08/07 12:54:32;;;;;;;4.80;2.75;;;;;;;;;;5068360;28;20053;-74
2021/08/07 12:56:59;;;;;;;4.45;2.70;;;;;;;;;;5062391;28;20056;-76
2021/08/07 12:59:27;;;;;;;4.82;2.25;;;;;;;;;;5056713;28;20064;-78
2021/08/07 13:02:03;;;;;;;5.15;3.05;;;;;;;;;;5068256;28;20060;-77
2021/08/07 13:04:41;;;;;;;4.75;2.70;;;;;;;;;;5076190;28;20048;-78
2021/08/07 13:07:08;;;;;;;10.57;8.20;;;;;;;;;;5075689;28;20094;-78
2021/08/07 13:09:35;;;;;;;5.07;3.20;;;;;;;;;;5076110;28;20049;-77
2021/08/07 13:12:08;;;;;;;5.93;3.22;;;;;;;;;;5075157;28;20044;-78
2021/08/07 13:14:38;;;;;;;3.90;2.30;;;;;;;;;;5065577;28;20479;-75
2021/08/07 13:17:05;;;;;;;4.50;2.58;;;;;;;;;;5069462;28;20052;-77
2021/08/07 13:19:34;;;;;;;4.95;2.50;;;;;;;;;;5059934;28;20068;-77
2021/08/07 13:22:16;;;;;;;5.15;2.80;;;;;;;;;;5059408;28;20103;-78
2021/08/07 13:24:50;;;;;;;4.47;2.60;;;;;;;;;;5057932;28;20053;-78
2021/08/07 13:27:17;;;;;;;3.53;2.50;;;;;;;;;;5060236;28;20072;-78
2021/08/07 13:29:45;;;;;;;4.50;2.53;;;;;;;;;;5060042;28;20068;-79
2021/08/07 13:32:20;;;;;;;4.97;2.33;;;;;;;;;;5059291;28;20502;-76
2021/08/07 13:34:48;;;;;;;4.80;2.60;;;;;;;;;;5059192;28;20498;-79
2021/08/07 13:37:15;;;;;;;6.00;4.40;;;;;;;;;;5059462;28;20498;-78
2021/08/07 13:39:42;;;;;;;4.50;3.05;;;;;;;;;;5059577;28;20517;-79
2021/08/07 13:42:09;;;;;;;3.85;2.42;;;;;;;;;;5059169;28;20071;-79
2021/08/07 13:44:36;;;;;;;5.90;2.55;;;;;;;;;;5058256;28;20049;-76
2021/08/07 13:47:06;;;;;;;3.50;2.30;;;;;;;;;;5058917;28;20056;-79
2021/08/07 13:49:33;;;;;;;5.20;2.58;;;;;;;;;;5058983;28;20060;-77
2021/08/07 13:52:00;;;;;;;4.32;2.42;;;;;;;;;;5059419;28;20510;-79
2021/08/07 13:54:27;;;;;;;3.75;2.10;;;;;;;;;;5059730;28;20048;-78
2021/08/07 13:56:54;;;;;;;4.03;2.30;;;;;;;;;;5058392;28;20452;-79
2021/08/07 13:59:21;;;;;;;3.80;2.58;;;;;;;;;;5057833;28;20067;-80
2021/08/07 14:01:47;;;;;;;4.32;2.42;;;;;;;;;;5066698;28;20497;-77
2021/08/07 14:04:16;;;;;;;4.47;2.58;;;;;;;;;;5078153;28;20052;-78
2021/08/07 14:06:43;;;;;;;4.07;2.20;;;;;;;;;;5078804;28;20394;-76
2021/08/07 14:09:10;;;;;;;4.25;2.42;;;;;;;;;;5079685;28;20063;-79
2021/08/07 14:14:58;;;;;;;;;;;;;;;;;;;;;
2021/08/07 14:17:48;;;;;;;3.47;2.05;;;;;;;;;;5061985;28;20056;-83
2021/08/07 14:26:01;;;;;;;4.38;2.65;;;;;;;;;;5068726;28;20049;-83
2021/08/07 14:28:34;;;;;;;4.43;2.53;;;;;;;;;;5070121;28;20067;-83
2021/08/07 14:31:01;;;;;;;3.88;2.47;;;;;;;;;;5070190;28;20113;-83
2021/08/07 14:33:52;;;;;;;3.70;2.40;;;;;;;;;;5069083;28;20077;-83
2021/08/07 14:39:13;;;;;;;4.07;2.45;;;;;;;;;;5061205;28;20045;-83
2021/08/07 14:42:07;;;;;;;4.40;2.45;;;;;;;;;;5061361;28;20075;-83
2021/08/07 14:48:05;;;;;;;;;;;;;;;;;;;;;
2021/08/07 14:51:00;;;;;;;3.53;2.50;;;;;;;;;;5061994;28;20049;-84
2021/08/07 14:56:18;;;;;;;5.45;2.85;;;;;;;;;;5059530;28;20083;-83
2021/08/07 14:59:08;;;;;;;8.82;5.05;;;;;;;;;;5061403;28;20077;-84
2021/08/07 15:01:35;;;;;;;5.18;2.00;;;;;;;;;;5113671;22;20048;-83
2021/08/07 15:06:57;;;;;;;7.68;2.20;;;;;;;;;;5079615;28;20090;-84
2021/08/07 15:09:36;;;;;;;3.42;1.88;;;;;;;;;;5079319;28;20084;-83
2021/08/07 15:12:12;;;;;;;6.03;2.15;;;;;;;;;;5028110;28;20595;-82
2021/08/07 15:14:39;;;;;;;3.35;1.60;;;;;;;;;;5018980;28;20044;-82
2021/08/07 15:17:22;;;;;;;6.03;1.75;;;;;;;;;;5064767;28;20433;-82
2021/08/07 15:25:25;;;;;;;;;;;;;;;;;;;;;